createdAt,value
2022-12-23T00:01:24.428Z,7.20
2022-12-23T00:03:51.316Z,7.22
2022-12-23T00:06:19.666Z,7.21
2022-12-23T00:08:46.839Z,7.22
2022-12-23T00:11:19.302Z,7.24
2022-12-23T00:14:05.028Z,7.27
2022-12-23T00:16:31.567Z,7.30
2022-12-23T00:18:57.999Z,7.31
2022-12-23T00:21:24.476Z,7.33
2022-12-23T00:23:51.639Z,7.35
2022-12-23T00:26:23.972Z,7.39
2022-12-23T00:28:51.135Z,7.42
2022-12-23T00:31:18.992Z,7.43
2022-12-23T00:33:47.616Z,7.46
2022-12-23T00:36:24.524Z,7.49
2022-12-23T00:39:09.772Z,7.51
2022-12-23T00:41:54.816Z,7.54
2022-12-23T00:44:21.431Z,7.57
2022-12-23T00:46:48.092Z,7.58
2022-12-23T00:49:36.648Z,7.60
2022-12-23T00:52:04.726Z,7.64
2022-12-23T00:54:31.964Z,7.65
2022-12-23T00:56:59.025Z,7.64
2022-12-23T00:59:25.557Z,7.65
2022-12-23T01:02:10.817Z,7.65
2022-12-23T01:04:56.111Z,7.68
2022-12-23T01:07:23.594Z,7.68
2022-12-23T01:09:50.024Z,7.69
2022-12-23T01:12:16.455Z,7.69
2022-12-23T01:14:42.866Z,7.69
2022-12-23T01:17:09.569Z,7.70
2022-12-23T01:19:36.118Z,7.69
2022-12-23T01:22:03.038Z,7.70
2022-12-23T01:24:33.015Z,7.71
2022-12-23T01:27:00.464Z,7.70
2022-12-23T01:29:27.017Z,7.70
2022-12-23T01:31:53.544Z,7.70
2022-12-23T01:34:20.070Z,7.68
2022-12-23T01:36:46.489Z,7.68
2022-12-23T01:39:12.997Z,7.70
2022-12-23T01:41:57.820Z,7.72
2022-12-23T01:44:49.035Z,7.73
2022-12-23T01:47:21.429Z,7.75
2022-12-23T01:49:50.595Z,7.78
2022-12-23T01:52:17.250Z,7.82
2022-12-23T01:54:44.414Z,7.86
2022-12-23T01:57:11.089Z,7.88
2022-12-23T01:59:55.894Z,7.92
2022-12-23T02:02:40.862Z,7.97
2022-12-23T02:05:08.359Z,8.02
2022-12-23T02:07:54.581Z,8.05
2022-12-23T02:10:26.236Z,8.10
2022-12-23T02:13:07.343Z,8.13
2022-12-23T02:16:17.631Z,8.17
2022-12-23T02:19:00.482Z,8.20
2022-12-23T02:22:11.181Z,8.22
2022-12-23T02:25:01.744Z,8.24
2022-12-23T02:27:44.285Z,8.25
2022-12-23T02:30:55.271Z,8.26
2022-12-23T02:33:36.233Z,8.29
2022-12-23T02:36:38.403Z,8.31
2022-12-23T02:39:19.236Z,8.32
2022-12-23T02:41:57.317Z,8.33
2022-12-23T02:44:33.309Z,8.35
2022-12-23T02:47:05.743Z,8.37
2022-12-23T02:49:43.770Z,8.38
2022-12-23T02:52:15.856Z,8.39
2022-12-23T02:54:48.566Z,8.40
2022-12-23T02:57:20.007Z,8.41
2022-12-23T02:59:50.972Z,8.42
2022-12-23T03:02:18.029Z,8.43
2022-12-23T03:04:44.641Z,8.43
2022-12-23T03:07:30.075Z,8.42
2022-12-23T03:10:13.395Z,8.41
2022-12-23T03:13:03.945Z,8.41
2022-12-23T03:15:37.209Z,8.40
2022-12-23T03:18:46.797Z,8.41
2022-12-23T03:21:22.310Z,8.42
2022-12-23T03:24:08.218Z,8.42
2022-12-23T03:26:40.683Z,8.42
2022-12-23T03:29:18.576Z,8.44
2022-12-23T03:31:46.303Z,8.46
2022-12-23T03:34:16.393Z,8.47
2022-12-23T03:36:53.091Z,8.49
2022-12-23T03:39:23.060Z,8.51
2022-12-23T03:42:00.204Z,8.54
2022-12-23T03:44:30.480Z,8.57
2022-12-23T03:47:05.309Z,8.60
2022-12-23T03:49:37.525Z,8.61
2022-12-23T03:52:18.905Z,8.62
2022-12-23T03:54:53.550Z,8.61
2022-12-23T03:57:28.230Z,8.61
2022-12-23T03:59:54.905Z,8.61
2022-12-23T04:03:00.045Z,8.60
2022-12-23T04:05:29.828Z,8.57
2022-12-23T04:08:06.920Z,8.56
2022-12-23T04:10:34.643Z,8.55
2022-12-23T04:13:02.126Z,8.57
2022-12-23T04:15:29.077Z,8.60
2022-12-23T04:17:57.672Z,8.62
2022-12-23T04:20:24.765Z,8.64
2022-12-23T04:22:51.244Z,8.66
2022-12-23T04:25:18.151Z,8.67
2022-12-23T04:27:44.587Z,8.65
2022-12-23T04:30:13.578Z,8.63
2022-12-23T04:32:41.583Z,8.62
2022-12-23T04:35:08.714Z,8.61
2022-12-23T04:37:35.190Z,8.60
2022-12-23T04:40:01.786Z,8.58
2022-12-23T04:42:28.234Z,8.55
2022-12-23T04:44:54.604Z,8.54
2022-12-23T04:47:21.021Z,8.53
2022-12-23T04:49:47.397Z,8.51
2022-12-23T04:52:13.833Z,8.49
2022-12-23T04:54:45.796Z,8.47
2022-12-23T04:57:12.842Z,8.43
2022-12-23T04:59:39.247Z,8.42
2022-12-23T05:02:05.779Z,8.38
2022-12-23T05:04:32.777Z,8.36
2022-12-23T05:06:59.213Z,8.32
2022-12-23T05:09:25.627Z,8.28
2022-12-23T05:11:51.995Z,8.25
2022-12-23T05:14:18.355Z,8.18
2022-12-23T05:16:44.904Z,8.14
2022-12-23T05:19:11.605Z,8.10
2022-12-23T05:21:38.057Z,8.07
2022-12-23T05:24:04.552Z,8.05
2022-12-23T05:26:30.957Z,8.02
2022-12-23T05:28:57.329Z,8.00
2022-12-23T05:31:23.824Z,7.96
2022-12-23T05:33:50.411Z,7.94
2022-12-23T05:36:16.879Z,7.92
2022-12-23T05:38:43.251Z,7.88
2022-12-23T05:41:09.732Z,7.86
2022-12-23T05:43:36.161Z,7.85
2022-12-23T05:46:02.719Z,7.85
2022-12-23T05:48:29.284Z,7.84
2022-12-23T05:50:55.708Z,7.83
2022-12-23T05:53:22.111Z,7.82
2022-12-23T05:55:48.611Z,7.82
2022-12-23T05:58:16.033Z,7.82
2022-12-23T06:00:42.793Z,7.82
2022-12-23T06:03:09.341Z,7.78
2022-12-23T06:05:37.690Z,7.76
2022-12-23T06:08:04.409Z,7.75
2022-12-23T06:10:30.851Z,7.73
2022-12-23T06:12:57.213Z,7.71
2022-12-23T06:15:23.609Z,7.70
2022-12-23T06:17:49.976Z,7.71
2022-12-23T06:20:20.677Z,7.70
2022-12-23T06:22:48.081Z,7.68
2022-12-23T06:25:14.523Z,7.66
2022-12-23T06:27:40.951Z,7.64
2022-12-23T06:30:08.099Z,7.62
2022-12-23T06:32:38.308Z,7.62
2022-12-23T06:35:06.447Z,7.60
2022-12-23T06:37:32.867Z,7.57
2022-12-23T06:39:59.342Z,7.55
2022-12-23T06:42:25.769Z,7.52
2022-12-23T06:44:52.163Z,7.50
2022-12-23T06:47:18.562Z,7.49
2022-12-23T06:49:44.996Z,7.49
2022-12-23T06:52:11.368Z,7.48
2022-12-23T06:54:37.930Z,7.48
2022-12-23T06:57:04.783Z,7.45
2022-12-23T06:59:31.555Z,7.44
2022-12-23T07:01:58.161Z,7.43
2022-12-23T07:04:24.754Z,7.42
2022-12-23T07:06:51.171Z,7.42
2022-12-23T07:09:17.643Z,7.41
2022-12-23T07:11:44.073Z,7.38
2022-12-23T07:14:10.507Z,7.37
2022-12-23T07:16:37.066Z,7.36
2022-12-23T07:19:03.534Z,7.37
2022-12-23T07:21:30.350Z,7.38
2022-12-23T07:23:56.955Z,7.39
2022-12-23T07:26:23.400Z,7.39
2022-12-23T07:28:49.769Z,7.39
2022-12-23T07:31:16.420Z,7.39
2022-12-23T07:33:43.244Z,7.38
2022-12-23T07:36:09.977Z,7.39
2022-12-23T07:38:36.401Z,7.38
2022-12-23T07:41:02.815Z,7.33
2022-12-23T07:43:29.250Z,7.31
2022-12-23T07:45:59.856Z,7.29
2022-12-23T07:48:27.339Z,7.28
2022-12-23T07:50:53.763Z,7.27
2022-12-23T07:53:20.228Z,7.25
2022-12-23T07:55:50.126Z,7.27
2022-12-23T07:58:19.491Z,7.31
2022-12-23T08:00:45.850Z,7.39
2022-12-23T08:03:12.690Z,7.44
2022-12-23T08:05:39.176Z,7.47
2022-12-23T08:08:05.576Z,7.48
2022-12-23T08:10:32.019Z,7.49
2022-12-23T08:13:01.555Z,7.51
2022-12-23T08:15:28.006Z,7.51
2022-12-23T08:17:56.238Z,7.48
2022-12-23T08:20:22.584Z,7.46
2022-12-23T08:22:49.046Z,7.44
2022-12-23T08:25:15.433Z,7.43
2022-12-23T08:27:41.807Z,7.44
2022-12-23T08:30:09.031Z,7.44
2022-12-23T08:32:35.521Z,7.47
2022-12-23T08:35:01.945Z,7.49
2022-12-23T08:37:28.661Z,7.50
2022-12-23T08:39:55.049Z,7.52
2022-12-23T08:42:21.455Z,7.56
2022-12-23T08:44:47.858Z,7.60
2022-12-23T08:47:14.300Z,7.64
2022-12-23T08:49:40.766Z,7.62
2022-12-23T08:52:07.235Z,7.63
2022-12-23T08:54:33.761Z,7.64
2022-12-23T08:57:00.141Z,7.64
2022-12-23T08:59:26.525Z,7.68
2022-12-23T09:01:53.140Z,7.73
2022-12-23T09:04:19.623Z,7.77
2022-12-23T09:06:46.123Z,7.80
2022-12-23T09:09:15.246Z,7.82
2022-12-23T09:11:42.353Z,7.84
2022-12-23T09:14:10.108Z,7.88
2022-12-23T09:16:36.980Z,7.92
2022-12-23T09:19:03.865Z,7.96
2022-12-23T09:21:30.365Z,7.99
2022-12-23T09:23:56.743Z,8.02
2022-12-23T09:26:26.643Z,8.05
2022-12-23T09:28:53.775Z,8.09
2022-12-23T09:31:20.942Z,8.14
2022-12-23T09:33:50.537Z,8.21
2022-12-23T09:36:17.694Z,8.24
2022-12-23T09:38:44.823Z,8.27
2022-12-23T09:41:20.153Z,8.29
2022-12-23T09:43:55.700Z,8.25
2022-12-23T09:46:25.356Z,8.23
2022-12-23T09:49:13.658Z,8.20
2022-12-23T09:51:40.235Z,8.18
2022-12-23T09:54:26.508Z,8.17
2022-12-23T09:56:57.611Z,8.13
2022-12-23T09:59:51.087Z,8.18
2022-12-23T10:02:29.564Z,8.25
2022-12-23T10:05:14.392Z,8.34
2022-12-23T10:07:53.182Z,8.44
2022-12-23T10:10:44.575Z,8.48
2022-12-23T10:13:56.069Z,8.50
2022-12-23T10:16:55.264Z,8.45
2022-12-23T10:19:43.071Z,8.42
2022-12-23T10:22:16.584Z,8.42
2022-12-23T10:24:46.253Z,8.42
2022-12-23T10:27:26.212Z,8.41
2022-12-23T10:29:52.561Z,8.37
2022-12-23T10:32:50.488Z,8.33
2022-12-23T10:35:25.977Z,8.30
2022-12-23T10:38:03.003Z,8.30
2022-12-23T10:40:54.311Z,8.31
2022-12-23T10:43:39.063Z,8.31
2022-12-23T10:46:27.140Z,8.31
2022-12-23T10:49:20.664Z,8.34
2022-12-23T10:52:02.040Z,8.33
2022-12-23T10:54:34.039Z,8.35
2022-12-23T10:57:01.616Z,8.35
2022-12-23T10:59:31.130Z,8.37
2022-12-23T11:02:13.660Z,8.40
2022-12-23T11:04:43.424Z,8.40
2022-12-23T11:10:07.442Z,8.43
2022-12-23T11:12:43.667Z,8.48
2022-12-23T11:15:40.776Z,8.52
2022-12-23T11:18:07.810Z,8.53
2022-12-23T11:20:36.884Z,8.53
2022-12-23T11:23:06.359Z,8.53
2022-12-23T11:25:40.852Z,8.50
2022-12-23T11:28:10.581Z,8.48
2022-12-23T11:30:56.217Z,8.47
2022-12-23T11:33:32.379Z,8.45
2022-12-23T11:36:13.017Z,8.44
2022-12-23T11:39:01.391Z,8.43
2022-12-23T11:41:30.166Z,8.40
2022-12-23T11:44:01.310Z,8.38
2022-12-23T11:46:30.828Z,8.36
2022-12-23T11:49:18.287Z,8.35
2022-12-23T11:52:00.346Z,8.33
2022-12-23T11:54:27.129Z,8.32
2022-12-23T11:56:55.029Z,8.33
2022-12-23T11:59:32.505Z,8.36
2022-12-23T12:02:01.930Z,8.39
2022-12-23T12:04:33.199Z,8.44
2022-12-23T12:07:00.911Z,8.48
2022-12-23T12:09:30.982Z,8.52
2022-12-23T12:12:04.604Z,8.57
2022-12-23T12:14:42.392Z,8.62
2022-12-23T12:17:24.493Z,8.64
2022-12-23T12:20:12.243Z,8.64
2022-12-23T12:22:48.564Z,8.63
2022-12-23T12:25:42.148Z,8.64
2022-12-23T12:28:22.394Z,8.68
2022-12-23T12:31:02.408Z,8.70
2022-12-23T12:33:41.791Z,8.71
2022-12-23T12:36:40.661Z,8.68
2022-12-23T12:39:26.056Z,8.71
2022-12-23T12:42:05.854Z,8.73
2022-12-23T12:45:05.263Z,8.74
2022-12-23T12:47:55.794Z,8.71
2022-12-23T12:50:29.511Z,8.68
2022-12-23T12:53:01.954Z,8.65
2022-12-23T12:55:32.444Z,8.65
2022-12-23T12:58:02.411Z,8.62
2022-12-23T13:00:32.823Z,8.63
2022-12-23T13:03:22.828Z,8.63
2022-12-23T13:06:15.427Z,8.63
2022-12-23T13:08:41.788Z,8.61
2022-12-23T13:11:26.533Z,8.58
2022-12-23T13:14:09.933Z,8.56
2022-12-23T13:16:53.513Z,8.53
2022-12-23T13:19:38.066Z,8.49
2022-12-23T13:22:15.912Z,8.46
2022-12-23T13:25:05.468Z,8.44
2022-12-23T13:27:57.930Z,8.43
2022-12-23T13:30:30.075Z,8.43
2022-12-23T13:33:17.311Z,8.42
2022-12-23T13:36:02.973Z,8.42
2022-12-23T13:38:49.562Z,8.40
2022-12-23T13:41:39.922Z,8.38
2022-12-23T13:44:09.608Z,8.36
2022-12-23T13:46:51.186Z,8.33
2022-12-23T13:49:45.697Z,8.32
2022-12-23T13:52:22.964Z,8.31
2022-12-23T13:55:14.935Z,8.29
2022-12-23T13:58:17.925Z,8.26
2022-12-23T14:00:44.732Z,8.22
2022-12-23T14:03:19.283Z,8.20
2022-12-23T14:05:50.453Z,8.18
2022-12-23T14:08:24.935Z,8.16
2022-12-23T14:11:01.666Z,8.13
2022-12-23T14:13:46.365Z,8.08
2022-12-23T14:16:22.040Z,8.04
2022-12-23T14:19:00.733Z,8.03
2022-12-23T14:21:54.700Z,8.02
2022-12-23T14:24:53.342Z,8.03
2022-12-23T14:27:30.869Z,8.04
2022-12-23T14:30:46.081Z,8.02
2022-12-23T14:33:24.004Z,8.01
2022-12-23T14:36:24.380Z,8.00
2022-12-23T14:39:33.891Z,7.94
2022-12-23T14:42:06.477Z,7.91
2022-12-23T14:44:37.558Z,7.90
2022-12-23T14:47:34.002Z,7.90
2022-12-23T14:50:40.547Z,7.88
2022-12-23T14:53:23.000Z,7.86
2022-12-23T14:55:51.436Z,7.84
2022-12-23T14:58:17.800Z,7.82
2022-12-23T15:00:50.902Z,7.81
2022-12-23T15:03:19.997Z,7.78
2022-12-23T15:05:46.996Z,7.75
2022-12-23T15:08:36.774Z,7.75
2022-12-23T15:11:04.287Z,7.72
2022-12-23T15:13:32.719Z,7.70
2022-12-23T15:16:01.629Z,7.68
2022-12-23T15:18:28.866Z,7.66
2022-12-23T15:21:03.990Z,7.63
2022-12-23T15:23:30.460Z,7.62
2022-12-23T15:25:59.750Z,7.61
2022-12-23T15:28:44.473Z,7.62
2022-12-23T15:31:33.047Z,7.62
2022-12-23T15:34:05.337Z,7.61
2022-12-23T15:36:36.883Z,7.61
2022-12-23T15:39:09.887Z,7.62
2022-12-23T15:41:44.684Z,7.63
2022-12-23T15:44:19.602Z,7.64
2022-12-23T15:46:46.389Z,7.64
2022-12-23T15:49:12.956Z,7.63
2022-12-23T15:54:36.802Z,7.60
2022-12-23T15:57:04.674Z,7.60
2022-12-23T15:59:38.739Z,7.60
2022-12-23T16:02:59.611Z,7.61
2022-12-23T16:05:35.171Z,7.60
2022-12-23T16:08:31.493Z,7.59
2022-12-23T16:11:00.616Z,7.55
2022-12-23T16:13:27.063Z,7.50
2022-12-23T16:15:53.638Z,7.46
2022-12-23T16:18:32.785Z,7.43
2022-12-23T16:21:02.227Z,7.40
2022-12-23T16:23:30.757Z,7.37
2022-12-23T16:26:00.121Z,7.36
2022-12-23T16:28:29.845Z,7.35
2022-12-23T16:30:58.300Z,7.35
2022-12-23T16:33:35.987Z,7.35
2022-12-23T16:36:38.092Z,7.32
2022-12-23T16:39:07.538Z,7.32
2022-12-23T16:41:34.956Z,7.32
2022-12-23T16:44:02.041Z,7.32
2022-12-23T16:46:33.962Z,7.33
2022-12-23T16:49:06.397Z,7.34
2022-12-23T16:51:34.300Z,7.36
2022-12-23T16:54:01.499Z,7.36
2022-12-23T16:56:34.228Z,7.36
2022-12-23T16:59:00.719Z,7.37
2022-12-23T17:01:39.565Z,7.37
2022-12-23T17:04:07.434Z,7.39
2022-12-23T17:06:35.823Z,7.41
2022-12-23T17:09:04.356Z,7.42
2022-12-23T17:11:53.111Z,7.44
2022-12-23T17:14:24.941Z,7.45
2022-12-23T17:16:51.965Z,7.47
2022-12-23T17:19:27.296Z,7.48
2022-12-23T17:21:59.697Z,7.50
2022-12-23T17:24:27.188Z,7.52
2022-12-23T17:26:55.187Z,7.53
2022-12-23T17:29:22.342Z,7.54
2022-12-23T17:31:50.181Z,7.57
2022-12-23T17:34:19.627Z,7.59
2022-12-23T17:36:49.888Z,7.58
2022-12-23T17:39:17.378Z,7.58
2022-12-23T17:41:43.929Z,7.58
2022-12-23T17:44:14.219Z,7.58
2022-12-23T17:46:41.172Z,7.58
2022-12-23T17:49:08.663Z,7.57
2022-12-23T17:51:35.192Z,7.56
2022-12-23T17:54:02.133Z,7.53
2022-12-23T17:56:29.044Z,7.52
2022-12-23T17:58:55.451Z,7.50
2022-12-23T18:01:31.574Z,7.48
2022-12-23T18:03:59.894Z,7.47
2022-12-23T18:06:28.518Z,7.47
2022-12-23T18:08:57.077Z,7.48
2022-12-23T18:11:44.784Z,7.47
2022-12-23T18:14:17.931Z,7.48
2022-12-23T18:16:44.463Z,7.47
2022-12-23T18:19:21.043Z,7.44
2022-12-23T18:21:47.876Z,7.45
2022-12-23T18:24:14.248Z,7.43
2022-12-23T18:26:40.654Z,7.43
2022-12-23T18:29:07.207Z,7.44
2022-12-23T18:31:35.857Z,7.44
2022-12-23T18:34:02.274Z,7.44
2022-12-23T18:36:32.856Z,7.42
2022-12-23T18:38:59.787Z,7.42
2022-12-23T18:41:27.155Z,7.43
2022-12-23T18:43:53.958Z,7.43
2022-12-23T18:46:20.834Z,7.45
2022-12-23T18:48:48.327Z,7.49
2022-12-23T18:51:16.308Z,7.50
2022-12-23T18:53:43.597Z,7.50
2022-12-23T18:56:21.171Z,7.49
2022-12-23T18:58:48.332Z,7.49
2022-12-23T19:01:16.608Z,7.47
2022-12-23T19:03:43.180Z,7.47
2022-12-23T19:06:12.765Z,7.47
2022-12-23T19:08:40.138Z,7.47
2022-12-23T19:11:18.438Z,7.47
2022-12-23T19:13:45.374Z,7.47
2022-12-23T19:16:17.728Z,7.48
2022-12-23T19:18:44.728Z,7.49
2022-12-23T19:21:11.408Z,7.50
2022-12-23T19:23:41.522Z,7.49
2022-12-23T19:26:13.560Z,7.50
2022-12-23T19:28:44.103Z,7.49
2022-12-23T19:31:15.686Z,7.48
2022-12-23T19:33:45.317Z,7.47
2022-12-23T19:36:14.083Z,7.47
2022-12-23T19:38:40.611Z,7.45
2022-12-23T19:41:07.960Z,7.43
2022-12-23T19:43:35.454Z,7.41
2022-12-23T19:46:04.472Z,7.39
2022-12-23T19:48:31.109Z,7.38
2022-12-23T19:51:03.961Z,7.38
2022-12-23T19:53:30.857Z,7.37
2022-12-23T19:55:59.275Z,7.36
2022-12-23T19:58:26.474Z,7.35
2022-12-23T20:00:53.325Z,7.35
2022-12-23T20:03:19.799Z,7.34
2022-12-23T20:05:52.356Z,7.34
2022-12-23T20:08:18.742Z,7.37
2022-12-23T20:10:45.191Z,7.38
2022-12-23T20:13:11.591Z,7.39
2022-12-23T20:15:38.058Z,7.39
2022-12-23T20:18:04.596Z,7.39
2022-12-23T20:20:31.212Z,7.35
2022-12-23T20:22:57.731Z,7.35
2022-12-23T20:25:24.260Z,7.35
2022-12-23T20:27:50.819Z,7.38
2022-12-23T20:30:17.242Z,7.38
2022-12-23T20:32:43.604Z,7.40
2022-12-23T20:35:10.108Z,7.42
2022-12-23T20:37:36.512Z,7.42
2022-12-23T20:40:03.711Z,7.42
2022-12-23T20:42:30.146Z,7.43
2022-12-23T20:44:56.553Z,7.44
2022-12-23T20:47:22.973Z,7.45
2022-12-23T20:49:49.344Z,7.47
2022-12-23T20:52:15.764Z,7.49
2022-12-23T20:54:42.134Z,7.49
2022-12-23T20:57:08.507Z,7.49
2022-12-23T20:59:34.945Z,7.48
2022-12-23T21:02:01.453Z,7.48
2022-12-23T21:04:28.235Z,7.47
2022-12-23T21:06:54.662Z,7.46
2022-12-23T21:09:21.113Z,7.45
2022-12-23T21:11:47.760Z,7.45
2022-12-23T21:14:15.364Z,7.45
2022-12-23T21:16:42.205Z,7.47
2022-12-23T21:19:14.227Z,7.47
2022-12-23T21:21:40.720Z,7.44
2022-12-23T21:24:07.241Z,7.41
2022-12-23T21:26:34.837Z,7.39
2022-12-23T21:29:03.984Z,7.39
2022-12-23T21:31:33.585Z,7.39
2022-12-23T21:34:00.263Z,7.41
2022-12-23T21:36:30.862Z,7.41
2022-12-23T21:38:58.000Z,7.41
2022-12-23T21:41:30.095Z,7.39
2022-12-23T21:43:58.663Z,7.39
2022-12-23T21:46:26.611Z,7.37
2022-12-23T21:48:55.274Z,7.35
2022-12-23T21:51:39.664Z,7.33
2022-12-23T21:54:07.924Z,7.30
2022-12-23T21:56:34.992Z,7.31
2022-12-23T21:59:04.080Z,7.32
2022-12-23T22:01:31.473Z,7.32
2022-12-23T22:03:58.232Z,7.31
2022-12-23T22:06:30.810Z,7.29
2022-12-23T22:08:58.265Z,7.30
2022-12-23T22:11:27.187Z,7.30
2022-12-23T22:13:55.483Z,7.31
2022-12-23T22:16:24.012Z,7.30
2022-12-23T22:18:51.033Z,7.31
2022-12-23T22:21:23.141Z,7.30
2022-12-23T22:23:50.644Z,7.30
2022-12-23T22:26:24.706Z,7.29
2022-12-23T22:28:54.378Z,7.27
2022-12-23T22:31:33.024Z,7.27
2022-12-23T22:33:59.509Z,7.30
2022-12-23T22:36:26.200Z,7.31
2022-12-23T22:38:55.243Z,7.35
2022-12-23T22:41:21.852Z,7.38
2022-12-23T22:43:49.091Z,7.39
2022-12-23T22:46:16.120Z,7.41
2022-12-23T22:48:42.818Z,7.42
2022-12-23T22:51:14.832Z,7.41
2022-12-23T22:53:41.587Z,7.39
2022-12-23T22:56:10.536Z,7.38
2022-12-23T22:58:37.186Z,7.38
2022-12-23T23:01:04.074Z,7.39
2022-12-23T23:03:30.849Z,7.40
2022-12-23T23:06:02.259Z,7.40
2022-12-23T23:08:29.946Z,7.39
2022-12-23T23:10:58.570Z,7.33
2022-12-23T23:13:28.515Z,7.30
2022-12-23T23:15:55.981Z,7.30
2022-12-23T23:18:23.477Z,7.31
2022-12-23T23:20:50.281Z,7.31
2022-12-23T23:23:16.685Z,7.33
2022-12-23T23:25:43.392Z,7.34
2022-12-23T23:28:11.688Z,7.34
2022-12-23T23:30:38.923Z,7.37
2022-12-23T23:33:06.718Z,7.35
2022-12-23T23:35:33.358Z,7.35
2022-12-23T23:37:59.762Z,7.35
2022-12-23T23:40:27.015Z,7.36
2022-12-23T23:42:53.651Z,7.37
2022-12-23T23:45:20.720Z,7.32
2022-12-23T23:47:47.155Z,7.27
2022-12-23T23:50:13.631Z,7.22
2022-12-23T23:52:40.071Z,7.20
2022-12-23T23:55:07.142Z,7.20
2022-12-23T23:57:33.738Z,7.21
